CZ-0030 weather

Area Of Fire And Rescue Force Heliport
Mělník, Central Bohemian Region, Czechia

Public forecast

Using degrees Celsius for public forecast. Weather courtesy of forecast.io.

Closest aviation weather report (METAR) to Area Of Fire And Rescue Force Heliport

Report is more than 6 hours old.

Closest report is Vodochody Airport, 8.8 nm (16.4 km) SSW. Retrieved 2019/10/11 15:00 UTC (2 days ago):

LKVO 111500Z 20006KT CAVOK 16/09 Q1017

Closest aviation forecast (TAF) to Area Of Fire And Rescue Force Heliport

Closest forecast is Kbely Air Base, 14.0 nm (26.0 km) S. Retrieved 2019/10/13 18:00 UTC (57 minutes ago):

TAF LKKB 131700Z 1318/1418 12006KT CAVOK TEMPO 1318/1322 15010KT BECMG 1322/1400 VRB02KT TEMPO 1402/1407 3000 MIFG BR PROB30 TEMPO 1404/1407 1000 BR SCT003 BECMG 1412/1414 09006KT